sensor_id;sensor_type;location;lat;lon;timestamp;temperature;humidity
78366;HTU21D;67641;59.864;30.464;2023-05-20T00:02:05;15.24;74.34
78366;HTU21D;67641;59.864;30.464;2023-05-20T00:06:38;15.29;74.06
78366;HTU21D;67641;59.864;30.464;2023-05-20T00:09:04;15.31;74.06
78366;HTU21D;67641;59.864;30.464;2023-05-20T00:11:31;15.30;73.73
78366;HTU21D;67641;59.864;30.464;2023-05-20T00:13:58;15.29;73.83
78366;HTU21D;67641;59.864;30.464;2023-05-20T00:16:25;15.31;73.83
78366;HTU21D;67641;59.864;30.464;2023-05-20T00:18:51;15.34;73.41
78366;HTU21D;67641;59.864;30.464;2023-05-20T00:21:19;15.40;72.90
78366;HTU21D;67641;59.864;30.464;2023-05-20T00:23:46;15.39;73.10
78366;HTU21D;67641;59.864;30.464;2023-05-20T00:28:06;15.26;73.23
78366;HTU21D;67641;59.864;30.464;2023-05-20T00:30:33;15.27;73.68
78366;HTU21D;67641;59.864;30.464;2023-05-20T00:33:00;15.28;73.24
78366;HTU21D;67641;59.864;30.464;2023-05-20T00:35:27;15.28;72.53
78366;HTU21D;67641;59.864;30.464;2023-05-20T00:37:53;15.31;73.06
78366;HTU21D;67641;59.864;30.464;2023-05-20T00:40:20;15.29;72.92
78366;HTU21D;67641;59.864;30.464;2023-05-20T00:42:49;15.24;73.21
78366;HTU21D;67641;59.864;30.464;2023-05-20T00:45:16;15.19;72.88
78366;HTU21D;67641;59.864;30.464;2023-05-20T00:49:35;15.09;73.18
78366;HTU21D;67641;59.864;30.464;2023-05-20T00:52:02;15.02;73.44
78366;HTU21D;67641;59.864;30.464;2023-05-20T00:54:28;15.04;73.03
78366;HTU21D;67641;59.864;30.464;2023-05-20T00:56:56;14.98;72.86
78366;HTU21D;67641;59.864;30.464;2023-05-20T00:59:24;14.96;73.55
78366;HTU21D;67641;59.864;30.464;2023-05-20T01:01:51;14.98;72.06
78366;HTU21D;67641;59.864;30.464;2023-05-20T01:04:18;15.02;73.05
78366;HTU21D;67641;59.864;30.464;2023-05-20T01:09:48;15.10;72.10
78366;HTU21D;67641;59.864;30.464;2023-05-20T01:12:21;15.07;72.27
78366;HTU21D;67641;59.864;30.464;2023-05-20T01:14:53;15.02;72.64
78366;HTU21D;67641;59.864;30.464;2023-05-20T01:17:24;15.01;72.72
78366;HTU21D;67641;59.864;30.464;2023-05-20T01:19:54;15.11;71.21
78366;HTU21D;67641;59.864;30.464;2023-05-20T01:22:25;15.16;71.85
78366;HTU21D;67641;59.864;30.464;2023-05-20T01:24:52;15.17;71.47
78366;HTU21D;67641;59.864;30.464;2023-05-20T01:30:44;15.21;70.34
78366;HTU21D;67641;59.864;30.464;2023-05-20T01:33:13;15.15;70.86
78366;HTU21D;67641;59.864;30.464;2023-05-20T01:35:42;15.11;71.49
78366;HTU21D;67641;59.864;30.464;2023-05-20T01:38:09;15.07;72.05
78366;HTU21D;67641;59.864;30.464;2023-05-20T01:40:37;15.02;71.79
78366;HTU21D;67641;59.864;30.464;2023-05-20T01:43:05;15.03;71.77
78366;HTU21D;67641;59.864;30.464;2023-05-20T01:45:32;15.12;71.26
78366;HTU21D;67641;59.864;30.464;2023-05-20T01:47:59;15.15;71.26
78366;HTU21D;67641;59.864;30.464;2023-05-20T01:50:55;15.10;71.23
78366;HTU21D;67641;59.864;30.464;2023-05-20T01:53:22;15.07;72.25
78366;HTU21D;67641;59.864;30.464;2023-05-20T01:55:48;15.01;72.45
78366;HTU21D;67641;59.864;30.464;2023-05-20T01:58:15;14.98;72.33
78366;HTU21D;67641;59.864;30.464;2023-05-20T02:00:42;15.01;72.43
78366;HTU21D;67641;59.864;30.464;2023-05-20T02:03:10;15.01;72.12
78366;HTU21D;67641;59.864;30.464;2023-05-20T02:05:37;14.98;72.55
78366;HTU21D;67641;59.864;30.464;2023-05-20T02:08:04;15.01;71.83
78366;HTU21D;67641;59.864;30.464;2023-05-20T02:13:08;14.98;72.93
78366;HTU21D;67641;59.864;30.464;2023-05-20T02:15:35;14.97;73.02
78366;HTU21D;67641;59.864;30.464;2023-05-20T02:18:02;14.99;73.06
78366;HTU21D;67641;59.864;30.464;2023-05-20T02:20:30;15.02;72.83
78366;HTU21D;67641;59.864;30.464;2023-05-20T02:22:57;15.03;73.35
78366;HTU21D;67641;59.864;30.464;2023-05-20T02:25:24;15.03;73.46
78366;HTU21D;67641;59.864;30.464;2023-05-20T02:27:51;15.01;73.44
78366;HTU21D;67641;59.864;30.464;2023-05-20T02:30:18;15.08;73.38
78366;HTU21D;67641;59.864;30.464;2023-05-20T02:35:26;15.04;73.25
78366;HTU21D;67641;59.864;30.464;2023-05-20T02:37:53;15.04;73.50
78366;HTU21D;67641;59.864;30.464;2023-05-20T02:40:20;15.03;73.35
78366;HTU21D;67641;59.864;30.464;2023-05-20T02:42:47;15.09;72.99
78366;HTU21D;67641;59.864;30.464;2023-05-20T02:45:14;15.07;73.44
78366;HTU21D;67641;59.864;30.464;2023-05-20T02:47:40;14.97;73.73
78366;HTU21D;67641;59.864;30.464;2023-05-20T02:50:07;14.93;73.83
78366;HTU21D;67641;59.864;30.464;2023-05-20T02:52:34;14.93;73.99
78366;HTU21D;67641;59.864;30.464;2023-05-20T02:56:53;14.96;74.25
78366;HTU21D;67641;59.864;30.464;2023-05-20T02:59:20;14.93;74.76
78366;HTU21D;67641;59.864;30.464;2023-05-20T03:01:47;14.92;74.83
78366;HTU21D;67641;59.864;30.464;2023-05-20T03:04:15;14.91;74.31
78366;HTU21D;67641;59.864;30.464;2023-05-20T03:06:45;15.02;74.89
78366;HTU21D;67641;59.864;30.464;2023-05-20T03:09:11;15.01;75.38
78366;HTU21D;67641;59.864;30.464;2023-05-20T03:11:40;15.01;75.72
78366;HTU21D;67641;59.864;30.464;2023-05-20T03:14:10;15.04;75.54
78366;HTU21D;67641;59.864;30.464;2023-05-20T03:18:10;14.97;75.84
78366;HTU21D;67641;59.864;30.464;2023-05-20T03:20:44;14.99;76.25
78366;HTU21D;67641;59.864;30.464;2023-05-20T03:23:11;15.02;76.27
78366;HTU21D;67641;59.864;30.464;2023-05-20T03:25:39;15.09;76.09
78366;HTU21D;67641;59.864;30.464;2023-05-20T03:28:07;15.14;76.06
78366;HTU21D;67641;59.864;30.464;2023-05-20T03:30:36;15.16;75.85
78366;HTU21D;67641;59.864;30.464;2023-05-20T03:33:04;15.24;75.30
78366;HTU21D;67641;59.864;30.464;2023-05-20T03:35:32;15.30;75.15
78366;HTU21D;67641;59.864;30.464;2023-05-20T03:40:38;15.31;75.87
78366;HTU21D;67641;59.864;30.464;2023-05-20T03:43:06;15.33;75.67
78366;HTU21D;67641;59.864;30.464;2023-05-20T03:45:33;15.33;76.77
78366;HTU21D;67641;59.864;30.464;2023-05-20T03:48:02;15.38;76.63
78366;HTU21D;67641;59.864;30.464;2023-05-20T03:50:29;15.41;77.09
78366;HTU21D;67641;59.864;30.464;2023-05-20T03:52:56;15.47;76.78
78366;HTU21D;67641;59.864;30.464;2023-05-20T03:55:23;15.53;76.09
78366;HTU21D;67641;59.864;30.464;2023-05-20T03:58:03;15.65;75.90
78366;HTU21D;67641;59.864;30.464;2023-05-20T04:02:21;15.78;75.57
78366;HTU21D;67641;59.864;30.464;2023-05-20T04:04:48;15.81;76.05
78366;HTU21D;67641;59.864;30.464;2023-05-20T04:07:20;15.85;75.42
78366;HTU21D;67641;59.864;30.464;2023-05-20T04:09:50;15.90;75.34
78366;HTU21D;67641;59.864;30.464;2023-05-20T04:12:18;15.93;76.09
78366;HTU21D;67641;59.864;30.464;2023-05-20T04:14:46;16.01;75.96
78366;HTU21D;67641;59.864;30.464;2023-05-20T04:17:15;16.06;76.11
78366;HTU21D;67641;59.864;30.464;2023-05-20T04:19:42;16.15;76.16
78366;HTU21D;67641;59.864;30.464;2023-05-20T04:23:44;16.42;74.74
78366;HTU21D;67641;59.864;30.464;2023-05-20T04:26:11;16.49;75.38
78366;HTU21D;67641;59.864;30.464;2023-05-20T04:28:38;16.58;75.21
78366;HTU21D;67641;59.864;30.464;2023-05-20T04:31:07;16.73;74.43
78366;HTU21D;67641;59.864;30.464;2023-05-20T04:33:36;16.84;75.62
78366;HTU21D;67641;59.864;30.464;2023-05-20T04:36:08;16.89;74.67
78366;HTU21D;67641;59.864;30.464;2023-05-20T04:38:37;16.98;74.17
78366;HTU21D;67641;59.864;30.464;2023-05-20T04:41:05;17.04;75.17
78366;HTU21D;67641;59.864;30.464;2023-05-20T04:45:26;17.04;74.25
78366;HTU21D;67641;59.864;30.464;2023-05-20T04:47:53;17.05;73.30
78366;HTU21D;67641;59.864;30.464;2023-05-20T04:50:21;17.03;72.93
78366;HTU21D;67641;59.864;30.464;2023-05-20T04:52:48;17.03;71.37
78366;HTU21D;67641;59.864;30.464;2023-05-20T04:55:16;17.06;71.19
78366;HTU21D;67641;59.864;30.464;2023-05-20T04:57:44;17.10;70.47
78366;HTU21D;67641;59.864;30.464;2023-05-20T05:00:13;17.06;71.05
78366;HTU21D;67641;59.864;30.464;2023-05-20T05:02:43;17.07;70.35
78366;HTU21D;67641;59.864;30.464;2023-05-20T05:07:10;17.10;69.61
78366;HTU21D;67641;59.864;30.464;2023-05-20T05:09:37;17.15;69.98
78366;HTU21D;67641;59.864;30.464;2023-05-20T05:12:05;17.22;72.13
78366;HTU21D;67641;59.864;30.464;2023-05-20T05:14:33;17.29;71.10
78366;HTU21D;67641;59.864;30.464;2023-05-20T05:17:01;17.32;69.84
78366;HTU21D;67641;59.864;30.464;2023-05-20T05:19:28;17.35;69.36
78366;HTU21D;67641;59.864;30.464;2023-05-20T05:21:56;17.38;68.91
78366;HTU21D;67641;59.864;30.464;2023-05-20T05:24:24;17.44;68.84
78366;HTU21D;67641;59.864;30.464;2023-05-20T05:29:38;17.50;68.39
78366;HTU21D;67641;59.864;30.464;2023-05-20T05:32:05;17.58;69.06
78366;HTU21D;67641;59.864;30.464;2023-05-20T05:34:32;17.62;69.19
78366;HTU21D;67641;59.864;30.464;2023-05-20T05:36:59;17.63;67.59
78366;HTU21D;67641;59.864;30.464;2023-05-20T05:39:26;17.56;68.50
78366;HTU21D;67641;59.864;30.464;2023-05-20T05:41:53;17.65;67.33
78366;HTU21D;67641;59.864;30.464;2023-05-20T05:44:21;17.65;68.34
78366;HTU21D;67641;59.864;30.464;2023-05-20T05:46:48;17.69;66.56
78366;HTU21D;67641;59.864;30.464;2023-05-20T05:51:35;17.72;65.84
78366;HTU21D;67641;59.864;30.464;2023-05-20T05:54:02;17.78;65.58
78366;HTU21D;67641;59.864;30.464;2023-05-20T05:56:29;17.77;66.49
78366;HTU21D;67641;59.864;30.464;2023-05-20T05:58:56;17.79;65.32
78366;HTU21D;67641;59.864;30.464;2023-05-20T06:01:23;17.88;65.35
78366;HTU21D;67641;59.864;30.464;2023-05-20T06:03:53;17.91;64.53
78366;HTU21D;67641;59.864;30.464;2023-05-20T06:06:20;17.92;64.73
78366;HTU21D;67641;59.864;30.464;2023-05-20T06:08:47;17.93;65.24
78366;HTU21D;67641;59.864;30.464;2023-05-20T06:13:49;18.00;64.65
78366;HTU21D;67641;59.864;30.464;2023-05-20T06:16:16;17.90;64.01
78366;HTU21D;67641;59.864;30.464;2023-05-20T06:18:45;17.89;64.63
78366;HTU21D;67641;59.864;30.464;2023-05-20T06:21:12;17.89;63.90
78366;HTU21D;67641;59.864;30.464;2023-05-20T06:23:39;17.90;63.89
78366;HTU21D;67641;59.864;30.464;2023-05-20T06:26:06;17.84;64.95
78366;HTU21D;67641;59.864;30.464;2023-05-20T06:28:33;17.88;64.77
78366;HTU21D;67641;59.864;30.464;2023-05-20T06:31:00;17.84;65.53
78366;HTU21D;67641;59.864;30.464;2023-05-20T06:36:02;17.91;66.24
78366;HTU21D;67641;59.864;30.464;2023-05-20T06:38:32;17.92;63.33
78366;HTU21D;67641;59.864;30.464;2023-05-20T06:40:59;17.98;64.47
78366;HTU21D;67641;59.864;30.464;2023-05-20T06:43:27;18.06;65.50
78366;HTU21D;67641;59.864;30.464;2023-05-20T06:45:54;18.06;66.24
78366;HTU21D;67641;59.864;30.464;2023-05-20T06:48:23;18.07;65.40
78366;HTU21D;67641;59.864;30.464;2023-05-20T06:50:53;18.08;65.26
78366;HTU21D;67641;59.864;30.464;2023-05-20T06:53:23;18.03;65.15
78366;HTU21D;67641;59.864;30.464;2023-05-20T06:57:30;17.99;65.36
78366;HTU21D;67641;59.864;30.464;2023-05-20T06:59:59;17.99;66.10
78366;HTU21D;67641;59.864;30.464;2023-05-20T07:02:26;18.00;66.08
78366;HTU21D;67641;59.864;30.464;2023-05-20T07:04:53;17.99;66.59
78366;HTU21D;67641;59.864;30.464;2023-05-20T07:07:20;17.92;67.81
78366;HTU21D;67641;59.864;30.464;2023-05-20T07:09:48;17.95;66.00
78366;HTU21D;67641;59.864;30.464;2023-05-20T07:12:15;18.05;65.78
78366;HTU21D;67641;59.864;30.464;2023-05-20T07:14:42;18.12;65.40
78366;HTU21D;67641;59.864;30.464;2023-05-20T07:19:50;18.29;65.71
78366;HTU21D;67641;59.864;30.464;2023-05-20T07:22:18;18.29;65.07
78366;HTU21D;67641;59.864;30.464;2023-05-20T07:24:45;18.38;65.43
78366;HTU21D;67641;59.864;30.464;2023-05-20T07:27:12;18.50;65.97
78366;HTU21D;67641;59.864;30.464;2023-05-20T07:29:42;18.63;65.40
78366;HTU21D;67641;59.864;30.464;2023-05-20T07:32:09;18.65;64.66
78366;HTU21D;67641;59.864;30.464;2023-05-20T07:34:37;18.66;64.66
78366;HTU21D;67641;59.864;30.464;2023-05-20T07:37:04;18.74;63.39
78366;HTU21D;67641;59.864;30.464;2023-05-20T07:42:13;18.92;63.94
78366;HTU21D;67641;59.864;30.464;2023-05-20T07:44:40;18.98;62.76
78366;HTU21D;67641;59.864;30.464;2023-05-20T07:47:07;18.94;64.48
78366;HTU21D;67641;59.864;30.464;2023-05-20T07:49:34;18.97;63.98
78366;HTU21D;67641;59.864;30.464;2023-05-20T07:52:02;19.05;64.16
78366;HTU21D;67641;59.864;30.464;2023-05-20T07:54:29;18.98;63.92
78366;HTU21D;67641;59.864;30.464;2023-05-20T07:56:56;18.94;63.69
78366;HTU21D;67641;59.864;30.464;2023-05-20T07:59:24;18.94;64.15
78366;HTU21D;67641;59.864;30.464;2023-05-20T08:03:56;19.02;64.15
78366;HTU21D;67641;59.864;30.464;2023-05-20T08:06:23;19.15;62.98
78366;HTU21D;67641;59.864;30.464;2023-05-20T08:08:51;19.23;62.39
78366;HTU21D;67641;59.864;30.464;2023-05-20T08:11:19;19.26;62.26
78366;HTU21D;67641;59.864;30.464;2023-05-20T08:13:49;19.15;61.86
78366;HTU21D;67641;59.864;30.464;2023-05-20T08:16:17;19.06;63.03
78366;HTU21D;67641;59.864;30.464;2023-05-20T08:18:46;19.01;62.32
78366;HTU21D;67641;59.864;30.464;2023-05-20T08:21:13;18.89;63.26
78366;HTU21D;67641;59.864;30.464;2023-05-20T08:25:53;18.95;64.91
78366;HTU21D;67641;59.864;30.464;2023-05-20T08:28:20;18.99;63.40
78366;HTU21D;67641;59.864;30.464;2023-05-20T08:30:50;19.03;63.44
78366;HTU21D;67641;59.864;30.464;2023-05-20T08:33:17;18.94;63.94
78366;HTU21D;67641;59.864;30.464;2023-05-20T08:35:46;18.93;62.90
78366;HTU21D;67641;59.864;30.464;2023-05-20T08:38:14;18.92;63.48
78366;HTU21D;67641;59.864;30.464;2023-05-20T08:40:41;18.93;63.60
78366;HTU21D;67641;59.864;30.464;2023-05-20T08:43:08;18.97;63.50
78366;HTU21D;67641;59.864;30.464;2023-05-20T08:48:17;18.98;63.60
78366;HTU21D;67641;59.864;30.464;2023-05-20T08:50:50;19.00;63.92
78366;HTU21D;67641;59.864;30.464;2023-05-20T08:53:22;18.95;62.92
78366;HTU21D;67641;59.864;30.464;2023-05-20T08:55:55;18.97;63.02
78366;HTU21D;67641;59.864;30.464;2023-05-20T08:58:47;19.00;63.46
78366;HTU21D;67641;59.864;30.464;2023-05-20T09:01:15;19.05;62.45
78366;HTU21D;67641;59.864;30.464;2023-05-20T09:03:45;19.08;62.78
78366;HTU21D;67641;59.864;30.464;2023-05-20T09:06:16;19.13;63.55
78366;HTU21D;67641;59.864;30.464;2023-05-20T09:09:30;19.11;63.57
78366;HTU21D;67641;59.864;30.464;2023-05-20T09:12:00;19.09;63.79
78366;HTU21D;67641;59.864;30.464;2023-05-20T09:14:29;19.09;63.60
78366;HTU21D;67641;59.864;30.464;2023-05-20T09:16:58;19.10;62.89
78366;HTU21D;67641;59.864;30.464;2023-05-20T09:19:25;19.16;63.53
78366;HTU21D;67641;59.864;30.464;2023-05-20T09:21:53;19.24;62.73
78366;HTU21D;67641;59.864;30.464;2023-05-20T09:24:24;19.28;62.49
78366;HTU21D;67641;59.864;30.464;2023-05-20T09:26:53;19.32;62.89
78366;HTU21D;67641;59.864;30.464;2023-05-20T09:32:01;19.38;63.02
78366;HTU21D;67641;59.864;30.464;2023-05-20T09:34:29;19.46;63.60
78366;HTU21D;67641;59.864;30.464;2023-05-20T09:37:02;19.51;61.37
78366;HTU21D;67641;59.864;30.464;2023-05-20T09:39:35;19.58;61.85
78366;HTU21D;67641;59.864;30.464;2023-05-20T09:42:16;19.72;62.27
78366;HTU21D;67641;59.864;30.464;2023-05-20T09:44:49;19.84;61.16
78366;HTU21D;67641;59.864;30.464;2023-05-20T09:47:17;19.89;61.43
78366;HTU21D;67641;59.864;30.464;2023-05-20T09:49:46;20.02;61.08
78366;HTU21D;67641;59.864;30.464;2023-05-20T09:52:39;20.27;61.20
78366;HTU21D;67641;59.864;30.464;2023-05-20T09:55:08;20.51;61.01
78366;HTU21D;67641;59.864;30.464;2023-05-20T09:57:38;20.60;57.97
78366;HTU21D;67641;59.864;30.464;2023-05-20T10:00:06;20.59;59.03
78366;HTU21D;67641;59.864;30.464;2023-05-20T10:02:47;20.68;58.71
78366;HTU21D;67641;59.864;30.464;2023-05-20T10:05:40;20.83;58.70
78366;HTU21D;67641;59.864;30.464;2023-05-20T10:19:37;20.09;62.23
78366;HTU21D;67641;59.864;30.464;2023-05-20T10:22:06;19.96;63.26
78366;HTU21D;67641;59.864;30.464;2023-05-20T10:24:40;19.84;63.22
78366;HTU21D;67641;59.864;30.464;2023-05-20T10:27:13;19.79;64.59
78366;HTU21D;67641;59.864;30.464;2023-05-20T10:29:45;19.79;64.64
78366;HTU21D;67641;59.864;30.464;2023-05-20T10:35:04;19.71;63.60
78366;HTU21D;67641;59.864;30.464;2023-05-20T10:37:39;19.68;63.69
78366;HTU21D;67641;59.864;30.464;2023-05-20T10:42:34;19.44;64.72
78366;HTU21D;67641;59.864;30.464;2023-05-20T10:45:02;19.42;64.61
78366;HTU21D;67641;59.864;30.464;2023-05-20T10:47:30;19.43;64.78
78366;HTU21D;67641;59.864;30.464;2023-05-20T10:49:57;19.50;64.98
78366;HTU21D;67641;59.864;30.464;2023-05-20T10:52:24;19.52;64.56
78366;HTU21D;67641;59.864;30.464;2023-05-20T10:55:18;19.56;65.11
78366;HTU21D;67641;59.864;30.464;2023-05-20T10:57:47;19.56;64.88
78366;HTU21D;67641;59.864;30.464;2023-05-20T11:00:14;19.55;65.78
78366;HTU21D;67641;59.864;30.464;2023-05-20T11:02:43;19.52;64.83
78366;HTU21D;67641;59.864;30.464;2023-05-20T11:05:11;19.47;65.33
78366;HTU21D;67641;59.864;30.464;2023-05-20T11:07:38;19.41;66.06
78366;HTU21D;67641;59.864;30.464;2023-05-20T11:10:07;19.47;66.88
78366;HTU21D;67641;59.864;30.464;2023-05-20T11:12:35;19.56;66.44
78366;HTU21D;67641;59.864;30.464;2023-05-20T11:16:41;19.59;65.89
78366;HTU21D;67641;59.864;30.464;2023-05-20T11:19:13;19.56;66.24
78366;HTU21D;67641;59.864;30.464;2023-05-20T11:21:46;19.52;66.35
78366;HTU21D;67641;59.864;30.464;2023-05-20T11:24:21;19.43;66.72
78366;HTU21D;67641;59.864;30.464;2023-05-20T11:26:48;19.35;66.84
78366;HTU21D;67641;59.864;30.464;2023-05-20T11:29:15;19.31;67.86
78366;HTU21D;67641;59.864;30.464;2023-05-20T11:31:43;19.30;69.91
78366;HTU21D;67641;59.864;30.464;2023-05-20T11:34:10;19.28;69.06
78366;HTU21D;67641;59.864;30.464;2023-05-20T11:38:39;19.20;69.64
78366;HTU21D;67641;59.864;30.464;2023-05-20T11:41:07;19.13;69.71
78366;HTU21D;67641;59.864;30.464;2023-05-20T11:43:34;19.06;69.89
78366;HTU21D;67641;59.864;30.464;2023-05-20T11:46:01;18.93;70.31
78366;HTU21D;67641;59.864;30.464;2023-05-20T11:48:28;18.76;70.78
78366;HTU21D;67641;59.864;30.464;2023-05-20T11:50:55;18.63;72.52
78366;HTU21D;67641;59.864;30.464;2023-05-20T11:53:23;18.54;72.99
78366;HTU21D;67641;59.864;30.464;2023-05-20T12:00:19;18.42;76.22
78366;HTU21D;67641;59.864;30.464;2023-05-20T12:02:46;18.42;78.43
78366;HTU21D;67641;59.864;30.464;2023-05-20T12:05:13;18.38;79.65
78366;HTU21D;67641;59.864;30.464;2023-05-20T12:07:41;18.38;79.33
78366;HTU21D;67641;59.864;30.464;2023-05-20T12:10:09;18.33;79.78
78366;HTU21D;67641;59.864;30.464;2023-05-20T12:12:36;18.32;80.34
78366;HTU21D;67641;59.864;30.464;2023-05-20T12:15:04;18.32;79.31
78366;HTU21D;67641;59.864;30.464;2023-05-20T12:17:44;18.32;78.09
78366;HTU21D;67641;59.864;30.464;2023-05-20T12:20:44;18.33;77.02
78366;HTU21D;67641;59.864;30.464;2023-05-20T12:23:11;18.40;79.90
78366;HTU21D;67641;59.864;30.464;2023-05-20T12:25:37;18.53;79.13
78366;HTU21D;67641;59.864;30.464;2023-05-20T12:28:04;18.63;78.71
78366;HTU21D;67641;59.864;30.464;2023-05-20T12:30:32;18.74;80.24
78366;HTU21D;67641;59.864;30.464;2023-05-20T12:32:59;18.82;81.04
78366;HTU21D;67641;59.864;30.464;2023-05-20T12:35:37;18.87;80.62
78366;HTU21D;67641;59.864;30.464;2023-05-20T12:38:05;18.82;78.47
78366;HTU21D;67641;59.864;30.464;2023-05-20T12:40:56;18.79;77.17
78366;HTU21D;67641;59.864;30.464;2023-05-20T12:43:22;18.77;78.21
78366;HTU21D;67641;59.864;30.464;2023-05-20T12:45:50;18.64;76.89
78366;HTU21D;67641;59.864;30.464;2023-05-20T12:48:17;18.52;77.52
78366;HTU21D;67641;59.864;30.464;2023-05-20T12:50:45;18.37;77.99
78366;HTU21D;67641;59.864;30.464;2023-05-20T12:53:11;18.29;78.95
78366;HTU21D;67641;59.864;30.464;2023-05-20T12:55:38;18.24;78.54
78366;HTU21D;67641;59.864;30.464;2023-05-20T12:58:05;18.14;78.33
78366;HTU21D;67641;59.864;30.464;2023-05-20T13:03:14;17.98;79.15
78366;HTU21D;67641;59.864;30.464;2023-05-20T13:05:41;17.95;80.83
78366;HTU21D;67641;59.864;30.464;2023-05-20T13:08:09;18.03;80.96
78366;HTU21D;67641;59.864;30.464;2023-05-20T13:10:38;18.10;80.01
78366;HTU21D;67641;59.864;30.464;2023-05-20T13:13:06;18.08;78.57
78366;HTU21D;67641;59.864;30.464;2023-05-20T13:15:34;18.05;79.04
78366;HTU21D;67641;59.864;30.464;2023-05-20T13:18:03;18.00;79.62
78366;HTU21D;67641;59.864;30.464;2023-05-20T13:23:27;17.99;80.20
78366;HTU21D;67641;59.864;30.464;2023-05-20T13:25:55;17.91;79.13
78366;HTU21D;67641;59.864;30.464;2023-05-20T13:28:22;17.88;79.26
78366;HTU21D;67641;59.864;30.464;2023-05-20T13:30:52;17.93;79.75
78366;HTU21D;67641;59.864;30.464;2023-05-20T13:33:19;17.91;80.04
78366;HTU21D;67641;59.864;30.464;2023-05-20T13:35:51;17.80;79.99
78366;HTU21D;67641;59.864;30.464;2023-05-20T13:38:19;17.72;80.47
78366;HTU21D;67641;59.864;30.464;2023-05-20T13:40:46;17.56;79.72
78366;HTU21D;67641;59.864;30.464;2023-05-20T13:45:25;17.47;78.95
78366;HTU21D;67641;59.864;30.464;2023-05-20T13:47:53;17.46;78.76
78366;HTU21D;67641;59.864;30.464;2023-05-20T13:50:21;17.45;78.36
78366;HTU21D;67641;59.864;30.464;2023-05-20T13:52:50;17.36;75.19
78366;HTU21D;67641;59.864;30.464;2023-05-20T13:55:23;17.31;77.15
78366;HTU21D;67641;59.864;30.464;2023-05-20T13:57:53;17.26;77.88
78366;HTU21D;67641;59.864;30.464;2023-05-20T14:00:24;17.31;77.86
78366;HTU21D;67641;59.864;30.464;2023-05-20T14:02:51;17.31;77.16
78366;HTU21D;67641;59.864;30.464;2023-05-20T14:07:08;17.35;78.69
78366;HTU21D;67641;59.864;30.464;2023-05-20T14:09:36;17.43;81.08
78366;HTU21D;67641;59.864;30.464;2023-05-20T14:12:04;17.47;81.93
78366;HTU21D;67641;59.864;30.464;2023-05-20T14:14:33;17.49;82.23
78366;HTU21D;67641;59.864;30.464;2023-05-20T14:17:02;17.56;82.62
78366;HTU21D;67641;59.864;30.464;2023-05-20T14:19:30;17.65;82.62
78366;HTU21D;67641;59.864;30.464;2023-05-20T14:21:58;17.73;82.39
78366;HTU21D;67641;59.864;30.464;2023-05-20T14:24:30;17.74;82.01
78366;HTU21D;67641;59.864;30.464;2023-05-20T14:29:36;17.87;81.42
78366;HTU21D;67641;59.864;30.464;2023-05-20T14:32:04;17.94;81.33
78366;HTU21D;67641;59.864;30.464;2023-05-20T14:34:31;17.98;80.65
78366;HTU21D;67641;59.864;30.464;2023-05-20T14:37:00;18.00;80.57
78366;HTU21D;67641;59.864;30.464;2023-05-20T14:39:35;18.06;81.06
78366;HTU21D;67641;59.864;30.464;2023-05-20T14:42:03;18.04;81.30
78366;HTU21D;67641;59.864;30.464;2023-05-20T14:44:31;17.97;81.83
78366;HTU21D;67641;59.864;30.464;2023-05-20T14:46:58;18.02;81.63
78366;HTU21D;67641;59.864;30.464;2023-05-20T14:51:04;18.06;80.85
78366;HTU21D;67641;59.864;30.464;2023-05-20T14:53:31;18.04;80.10
78366;HTU21D;67641;59.864;30.464;2023-05-20T14:55:59;17.94;80.75
78366;HTU21D;67641;59.864;30.464;2023-05-20T14:58:28;17.90;81.64
78366;HTU21D;67641;59.864;30.464;2023-05-20T15:00:56;17.90;81.89
78366;HTU21D;67641;59.864;30.464;2023-05-20T15:03:24;17.88;81.88
78366;HTU21D;67641;59.864;30.464;2023-05-20T15:05:54;17.93;81.57
78366;HTU21D;67641;59.864;30.464;2023-05-20T15:08:22;17.95;80.96
78366;HTU21D;67641;59.864;30.464;2023-05-20T15:12:24;17.91;79.39
78366;HTU21D;67641;59.864;30.464;2023-05-20T15:14:52;17.94;79.21
78366;HTU21D;67641;59.864;30.464;2023-05-20T15:17:20;17.96;78.85
78366;HTU21D;67641;59.864;30.464;2023-05-20T15:19:49;17.92;77.44
78366;HTU21D;67641;59.864;30.464;2023-05-20T15:22:17;17.90;78.29
78366;HTU21D;67641;59.864;30.464;2023-05-20T15:24:44;17.93;78.48
78366;HTU21D;67641;59.864;30.464;2023-05-20T15:27:15;17.99;78.34
78366;HTU21D;67641;59.864;30.464;2023-05-20T15:29:46;18.05;77.82
78366;HTU21D;67641;59.864;30.464;2023-05-20T15:34:20;18.11;78.14
78366;HTU21D;67641;59.864;30.464;2023-05-20T15:36:49;18.17;78.43
78366;HTU21D;67641;59.864;30.464;2023-05-20T15:39:18;18.21;78.81
78366;HTU21D;67641;59.864;30.464;2023-05-20T15:41:46;18.28;79.19
78366;HTU21D;67641;59.864;30.464;2023-05-20T15:44:16;18.36;79.88
78366;HTU21D;67641;59.864;30.464;2023-05-20T15:46:44;18.39;78.54
78366;HTU21D;67641;59.864;30.464;2023-05-20T15:49:11;18.43;78.66
78366;HTU21D;67641;59.864;30.464;2023-05-20T15:51:39;18.43;79.24
78366;HTU21D;67641;59.864;30.464;2023-05-20T15:55:49;18.39;78.50
78366;HTU21D;67641;59.864;30.464;2023-05-20T15:58:18;18.38;78.02
78366;HTU21D;67641;59.864;30.464;2023-05-20T16:00:46;18.35;77.31
78366;HTU21D;67641;59.864;30.464;2023-05-20T16:03:16;18.26;77.71
78366;HTU21D;67641;59.864;30.464;2023-05-20T16:05:47;18.19;78.62
78366;HTU21D;67641;59.864;30.464;2023-05-20T16:08:15;18.06;79.64
78366;HTU21D;67641;59.864;30.464;2023-05-20T16:10:43;18.02;79.93
78366;HTU21D;67641;59.864;30.464;2023-05-20T16:13:11;18.02;80.01
78366;HTU21D;67641;59.864;30.464;2023-05-20T16:17:36;18.06;80.06
78366;HTU21D;67641;59.864;30.464;2023-05-20T16:20:04;17.99;80.19
78366;HTU21D;67641;59.864;30.464;2023-05-20T16:22:35;17.95;81.03
78366;HTU21D;67641;59.864;30.464;2023-05-20T16:25:03;17.84;80.52
78366;HTU21D;67641;59.864;30.464;2023-05-20T16:27:32;17.85;80.85
78366;HTU21D;67641;59.864;30.464;2023-05-20T16:30:05;17.87;80.43
78366;HTU21D;67641;59.864;30.464;2023-05-20T16:32:33;17.88;80.11
78366;HTU21D;67641;59.864;30.464;2023-05-20T16:35:01;17.82;79.88
78366;HTU21D;67641;59.864;30.464;2023-05-20T16:39:31;17.75;80.52
78366;HTU21D;67641;59.864;30.464;2023-05-20T16:41:58;17.77;80.32
78366;HTU21D;67641;59.864;30.464;2023-05-20T16:44:27;17.80;80.07
78366;HTU21D;67641;59.864;30.464;2023-05-20T16:46:58;17.80;80.08
78366;HTU21D;67641;59.864;30.464;2023-05-20T16:49:24;17.79;80.22
78366;HTU21D;67641;59.864;30.464;2023-05-20T16:51:52;17.76;79.65
78366;HTU21D;67641;59.864;30.464;2023-05-20T16:54:19;17.70;78.94
78366;HTU21D;67641;59.864;30.464;2023-05-20T16:56:48;17.65;78.59
78366;HTU21D;67641;59.864;30.464;2023-05-20T17:01:55;17.52;79.04